createdAt,value
2022-10-22T00:00:46.127Z,4.10
2022-10-22T00:03:49.686Z,3.72
2022-10-22T00:06:52.783Z,4.17
2022-10-22T00:09:55.991Z,4.25
2022-10-22T00:12:59.158Z,3.67
2022-10-22T00:16:02.270Z,4.28
2022-10-22T00:19:05.405Z,4.25
2022-10-22T00:22:10.009Z,3.97
2022-10-22T00:25:13.225Z,4.05
2022-10-22T00:28:16.380Z,3.97
2022-10-22T00:31:20.192Z,4.25
2022-10-22T00:34:23.784Z,4.57
2022-10-22T00:37:26.996Z,4.10
2022-10-22T00:40:30.198Z,4.00
2022-10-22T00:43:33.398Z,4.20
2022-10-22T00:46:36.493Z,5.03
2022-10-22T00:49:40.000Z,3.70
2022-10-22T00:52:43.557Z,4.50
2022-10-22T00:55:51.513Z,4.50
2022-10-22T00:58:57.878Z,4.25
2022-10-22T01:02:01.413Z,4.43
2022-10-22T01:05:04.816Z,4.50
2022-10-22T01:08:14.299Z,4.70
2022-10-22T01:11:42.576Z,4.72
2022-10-22T01:15:11.224Z,4.65
2022-10-22T01:18:19.216Z,4.30
2022-10-22T01:21:34.044Z,4.47
2022-10-22T01:24:49.088Z,4.73
2022-10-22T01:28:27.884Z,5.05
2022-10-22T01:31:38.023Z,5.00
2022-10-22T01:34:45.937Z,5.18
2022-10-22T01:37:54.111Z,5.22
2022-10-22T01:40:58.389Z,5.67
2022-10-22T01:44:01.670Z,5.50
2022-10-22T01:47:07.887Z,5.43
2022-10-22T01:50:27.367Z,5.15
2022-10-22T01:53:37.750Z,5.53
2022-10-22T01:56:43.666Z,5.60
2022-10-22T01:59:53.152Z,4.68
2022-10-22T02:02:58.468Z,4.82
2022-10-22T02:06:08.928Z,5.15
2022-10-22T02:09:17.783Z,5.10
2022-10-22T02:12:22.876Z,5.10
2022-10-22T02:15:29.530Z,5.38
2022-10-22T02:18:37.613Z,4.93
2022-10-22T02:21:42.810Z,5.07
2022-10-22T02:24:46.530Z,4.93
2022-10-22T02:28:02.763Z,5.33
2022-10-22T02:31:23.516Z,5.57
2022-10-22T02:34:30.836Z,5.82
2022-10-22T02:37:34.571Z,5.45
2022-10-22T02:40:38.212Z,5.72
2022-10-22T02:43:44.852Z,5.80
2022-10-22T02:46:48.369Z,5.78
2022-10-22T02:49:51.556Z,5.55
2022-10-22T02:52:54.630Z,5.57
2022-10-22T02:55:58.495Z,6.05
2022-10-22T02:59:01.963Z,5.67
2022-10-22T03:02:05.212Z,5.70
2022-10-22T03:05:08.909Z,5.63
2022-10-22T03:08:12.316Z,5.90
2022-10-22T03:11:15.858Z,5.53
2022-10-22T03:14:19.177Z,5.83
2022-10-22T03:17:23.068Z,5.82
2022-10-22T03:20:26.309Z,5.40
2022-10-22T03:23:29.549Z,5.95
2022-10-22T03:26:33.809Z,5.28
2022-10-22T03:29:39.819Z,6.00
2022-10-22T03:32:48.063Z,5.65
2022-10-22T03:35:51.257Z,5.32
2022-10-22T03:38:54.949Z,5.78
2022-10-22T03:41:58.406Z,5.60
2022-10-22T03:45:01.534Z,4.93
2022-10-22T03:48:05.028Z,5.57
2022-10-22T03:51:08.576Z,5.95
2022-10-22T03:54:11.753Z,5.55
2022-10-22T03:57:15.502Z,5.75
2022-10-22T04:00:18.767Z,5.90
2022-10-22T04:03:21.921Z,5.68
2022-10-22T04:06:25.285Z,5.47
2022-10-22T04:09:31.137Z,5.65
2022-10-22T04:12:34.279Z,6.50
2022-10-22T04:15:37.505Z,6.20
2022-10-22T04:18:41.245Z,6.07
2022-10-22T04:21:44.593Z,6.53
2022-10-22T04:24:47.714Z,6.50
2022-10-22T04:27:50.877Z,6.28
2022-10-22T04:30:54.203Z,6.30
2022-10-22T04:33:59.537Z,5.50
2022-10-22T04:37:03.221Z,5.88
2022-10-22T04:40:07.071Z,5.70
2022-10-22T04:43:10.177Z,5.88
2022-10-22T04:46:14.642Z,5.20
2022-10-22T04:49:18.560Z,5.30
2022-10-22T04:52:21.760Z,5.13
2022-10-22T04:55:24.903Z,6.03
2022-10-22T04:58:28.200Z,5.43
2022-10-22T05:01:40.068Z,5.63
2022-10-22T05:04:46.293Z,5.15
2022-10-22T05:07:52.048Z,5.40
2022-10-22T05:10:55.147Z,4.90
2022-10-22T05:13:59.524Z,5.53
2022-10-22T05:17:02.780Z,5.33
2022-10-22T05:20:06.603Z,5.65
2022-10-22T05:23:10.045Z,5.75
2022-10-22T05:26:15.379Z,5.88
2022-10-22T05:29:18.991Z,6.25
2022-10-22T05:32:23.040Z,6.90
2022-10-22T05:35:26.190Z,6.10
2022-10-22T05:38:29.434Z,5.75
2022-10-22T05:41:35.671Z,5.65
2022-10-22T05:44:40.867Z,5.60
2022-10-22T05:47:44.061Z,5.83
2022-10-22T05:50:50.677Z,6.43
2022-10-22T05:53:56.487Z,6.25
2022-10-22T05:56:59.784Z,5.28
2022-10-22T06:00:03.585Z,6.47
2022-10-22T06:03:07.668Z,6.50
2022-10-22T06:06:31.726Z,4.75
2022-10-22T06:12:40.920Z,6.53
2022-10-22T06:15:44.469Z,6.55
2022-10-22T06:18:47.654Z,6.53
2022-10-22T06:21:50.859Z,6.40
2022-10-22T06:24:53.944Z,6.75
2022-10-22T06:27:57.135Z,7.32
2022-10-22T06:31:02.004Z,6.95
2022-10-22T06:34:06.947Z,6.93
2022-10-22T06:37:10.737Z,6.55
2022-10-22T06:40:14.131Z,6.38
2022-10-22T06:43:17.281Z,6.63
2022-10-22T06:46:21.872Z,6.03
2022-10-22T06:49:25.061Z,7.07
2022-10-22T06:52:28.222Z,6.95
2022-10-22T06:55:31.415Z,6.10
2022-10-22T06:58:34.818Z,7.25
2022-10-22T07:01:39.257Z,6.60
2022-10-22T07:04:42.564Z,6.97
2022-10-22T07:07:45.837Z,6.82
2022-10-22T07:10:49.060Z,6.40
2022-10-22T07:13:54.423Z,6.10
2022-10-22T07:16:57.584Z,6.20
2022-10-22T07:20:00.820Z,6.00
2022-10-22T07:23:03.979Z,6.80
2022-10-22T07:26:08.633Z,6.68
2022-10-22T07:29:12.126Z,6.80
2022-10-22T07:32:15.358Z,6.05
2022-10-22T07:35:18.560Z,6.63
2022-10-22T07:38:21.735Z,6.30
2022-10-22T07:41:25.833Z,5.82
2022-10-22T07:44:29.070Z,6.95
2022-10-22T07:47:32.246Z,5.82
2022-10-22T07:50:35.674Z,6.47
2022-10-22T07:53:38.949Z,6.85
2022-10-22T07:56:42.127Z,7.65
2022-10-22T07:59:45.647Z,7.07
2022-10-22T08:02:48.775Z,7.45
2022-10-22T08:05:52.867Z,6.70
2022-10-22T08:08:56.072Z,6.70
2022-10-22T08:11:59.379Z,7.20
2022-10-22T08:15:02.673Z,6.63
2022-10-22T08:18:06.751Z,6.85
2022-10-22T08:21:10.777Z,7.30
2022-10-22T08:24:14.571Z,7.10
2022-10-22T08:27:18.010Z,7.07
2022-10-22T08:30:21.252Z,5.90
2022-10-22T08:33:24.668Z,6.72
2022-10-22T08:36:27.975Z,6.17
2022-10-22T08:39:31.145Z,6.82
2022-10-22T08:42:37.003Z,5.05
2022-10-22T08:45:45.840Z,7.72
2022-10-22T08:48:48.780Z,5.03
2022-10-22T08:51:52.145Z,6.37
2022-10-22T08:54:59.370Z,6.03
2022-10-22T08:58:25.824Z,5.82
2022-10-22T09:01:43.058Z,5.97
2022-10-22T09:04:54.702Z,5.15
2022-10-22T09:07:58.148Z,7.00
2022-10-22T09:11:27.228Z,5.55
2022-10-22T09:14:30.667Z,6.47
2022-10-22T09:17:45.527Z,5.50
2022-10-22T09:20:50.143Z,6.25
2022-10-22T09:24:00.470Z,4.60
2022-10-22T09:27:12.899Z,5.30
2022-10-22T09:30:24.263Z,3.63
2022-10-22T09:33:30.909Z,5.68
2022-10-22T09:36:37.757Z,3.97
2022-10-22T09:39:46.465Z,4.67
2022-10-22T09:42:49.937Z,3.83
2022-10-22T09:46:04.740Z,3.47
2022-10-22T09:49:14.555Z,4.22
2022-10-22T09:52:28.661Z,5.35
2022-10-22T09:55:31.996Z,4.73
2022-10-22T09:58:46.423Z,3.97
2022-10-22T10:02:19.440Z,3.97
2022-10-22T10:05:33.340Z,4.00
2022-10-22T10:08:36.640Z,4.13
2022-10-22T10:12:23.308Z,4.00
2022-10-22T10:16:00.053Z,4.10
2022-10-22T10:19:28.381Z,4.20
2022-10-22T10:23:04.805Z,4.43
2022-10-22T10:26:22.894Z,3.70
2022-10-22T10:30:05.241Z,6.20
2022-10-22T10:33:35.277Z,5.32
2022-10-22T10:36:57.296Z,4.03
2022-10-22T10:40:34.668Z,4.57
2022-10-22T10:44:09.631Z,4.78
2022-10-22T10:47:40.630Z,4.33
2022-10-22T10:51:08.599Z,4.10
2022-10-22T10:54:27.443Z,4.22
2022-10-22T10:57:57.931Z,4.22
2022-10-22T11:01:23.897Z,4.20
2022-10-22T11:04:48.124Z,3.90
2022-10-22T11:07:57.728Z,4.45
2022-10-22T11:11:27.699Z,4.40
2022-10-22T11:14:50.035Z,5.10
2022-10-22T11:17:59.549Z,4.95
2022-10-22T11:21:21.554Z,4.20
2022-10-22T11:24:35.667Z,4.00
2022-10-22T11:27:53.474Z,3.60
2022-10-22T11:31:03.929Z,3.78
2022-10-22T11:34:33.138Z,3.60
2022-10-22T11:37:39.197Z,3.70
2022-10-22T11:41:02.086Z,3.70
2022-10-22T11:44:25.969Z,3.67
2022-10-22T11:47:35.156Z,3.63
2022-10-22T11:50:54.944Z,3.50
2022-10-22T11:54:01.231Z,3.67
2022-10-22T11:57:13.723Z,3.92
2022-10-22T12:00:46.392Z,3.88
2022-10-22T12:03:57.315Z,3.20
2022-10-22T12:07:03.596Z,3.40
2022-10-22T12:10:19.230Z,3.43
2022-10-22T12:13:28.836Z,3.50
2022-10-22T12:20:12.919Z,3.40
2022-10-22T12:23:16.637Z,3.90
2022-10-22T12:26:26.218Z,3.80
2022-10-22T12:29:32.839Z,3.60
2022-10-22T12:32:38.612Z,4.70
2022-10-22T12:35:46.595Z,4.47
2022-10-22T12:38:49.768Z,3.25
2022-10-22T12:41:54.462Z,3.33
2022-10-22T12:44:57.712Z,3.72
2022-10-22T12:48:15.581Z,3.58
2022-10-22T12:51:20.708Z,3.83
2022-10-22T12:54:29.765Z,3.38
2022-10-22T12:57:32.856Z,3.70
2022-10-22T13:00:36.754Z,3.80
2022-10-22T13:03:46.352Z,4.20
2022-10-22T13:06:52.329Z,3.80
2022-10-22T13:10:01.844Z,3.97
2022-10-22T13:13:08.008Z,3.70
2022-10-22T13:16:20.555Z,4.07
2022-10-22T13:19:44.641Z,3.45
2022-10-22T13:23:18.482Z,3.80
2022-10-22T13:26:21.818Z,3.92
2022-10-22T13:29:25.790Z,4.10
2022-10-22T13:32:33.958Z,4.03
2022-10-22T13:35:38.428Z,5.10
2022-10-22T13:38:42.459Z,4.22
2022-10-22T13:41:46.029Z,3.28
2022-10-22T13:44:49.185Z,3.50
2022-10-22T13:47:54.510Z,4.60
2022-10-22T13:50:57.895Z,4.07
2022-10-22T13:54:01.812Z,4.90
2022-10-22T13:57:09.489Z,4.65
2022-10-22T14:00:15.028Z,4.40
2022-10-22T14:03:21.497Z,4.70
2022-10-22T14:06:31.205Z,5.35
2022-10-22T14:09:34.352Z,4.70
2022-10-22T14:12:37.671Z,4.43
2022-10-22T14:15:49.078Z,5.20
2022-10-22T14:18:52.628Z,5.03
2022-10-22T14:21:55.833Z,4.50
2022-10-22T14:24:58.967Z,5.75
2022-10-22T14:28:02.138Z,5.60
2022-10-22T14:31:05.444Z,5.40
2022-10-22T14:34:11.784Z,5.57
2022-10-22T14:37:20.134Z,4.20
2022-10-22T14:40:23.385Z,4.43
2022-10-22T14:43:31.023Z,5.95
2022-10-22T14:46:34.305Z,4.90
2022-10-22T14:49:37.557Z,6.22
2022-10-22T14:52:43.546Z,5.30
2022-10-22T14:55:49.015Z,5.25
2022-10-22T14:58:53.424Z,4.90
2022-10-22T15:01:56.928Z,3.33
2022-10-22T15:05:00.388Z,4.55
2022-10-22T15:08:03.773Z,4.57
2022-10-22T15:11:12.552Z,4.72
2022-10-22T15:14:15.808Z,4.70
2022-10-22T15:17:19.181Z,4.27
2022-10-22T15:20:22.268Z,5.25
2022-10-22T15:23:26.240Z,3.97
2022-10-22T15:26:29.460Z,3.70
2022-10-22T15:29:33.238Z,3.53
2022-10-22T15:32:36.873Z,3.60
2022-10-22T15:35:40.139Z,5.22
2022-10-22T15:38:43.331Z,3.50
2022-10-22T15:41:49.360Z,3.00
2022-10-22T15:44:59.000Z,3.47
2022-10-22T15:48:02.181Z,3.43
2022-10-22T15:51:15.007Z,2.78
2022-10-22T15:54:20.949Z,3.17
2022-10-22T15:57:24.233Z,3.10
2022-10-22T16:00:27.391Z,2.90
2022-10-22T16:06:41.018Z,3.67
2022-10-22T16:09:44.202Z,3.70
2022-10-22T16:12:47.375Z,3.25
2022-10-22T16:15:51.231Z,3.35
2022-10-22T16:18:54.701Z,3.00
2022-10-22T16:21:59.452Z,3.22
2022-10-22T16:25:02.744Z,3.13
2022-10-22T16:28:06.442Z,3.50
2022-10-22T16:31:12.872Z,3.10
2022-10-22T16:34:16.072Z,2.87
2022-10-22T16:37:22.088Z,2.45
2022-10-22T16:40:25.551Z,2.95
2022-10-22T16:43:29.939Z,2.22
2022-10-22T16:46:36.689Z,2.90
2022-10-22T16:49:40.042Z,2.27
2022-10-22T16:52:43.602Z,2.35
2022-10-22T16:55:46.827Z,2.50
2022-10-22T16:58:52.831Z,2.53
2022-10-22T17:01:56.125Z,2.58
2022-10-22T17:04:59.950Z,2.77
2022-10-22T17:08:03.689Z,2.90
2022-10-22T17:11:17.580Z,3.28
2022-10-22T17:14:21.095Z,3.08
2022-10-22T17:17:24.539Z,3.33
2022-10-22T17:20:28.195Z,3.73
2022-10-22T17:23:31.583Z,4.20
2022-10-22T17:26:35.465Z,3.70
2022-10-22T17:29:38.741Z,3.90
2022-10-22T17:32:42.179Z,3.92
2022-10-22T17:35:45.709Z,4.40
2022-10-22T17:38:51.892Z,4.82
2022-10-22T17:41:55.278Z,4.60
2022-10-22T17:44:58.859Z,4.82
2022-10-22T17:48:02.254Z,5.10
2022-10-22T17:51:10.445Z,6.20
2022-10-22T17:54:14.544Z,5.18
2022-10-22T17:57:17.950Z,5.78
2022-10-22T18:00:22.839Z,5.43
2022-10-22T18:03:27.879Z,5.25
2022-10-22T18:06:32.630Z,5.70
2022-10-22T18:09:36.332Z,6.03
2022-10-22T18:12:39.849Z,6.70
2022-10-22T18:15:43.442Z,7.22
2022-10-22T18:18:51.592Z,6.30
2022-10-22T18:21:55.515Z,6.30
2022-10-22T18:24:58.911Z,7.78
2022-10-22T18:28:02.331Z,7.78
2022-10-22T18:31:07.293Z,8.07
2022-10-22T18:34:10.750Z,7.30
2022-10-22T18:37:14.270Z,6.50
2022-10-22T18:40:17.634Z,8.85
2022-10-22T18:43:20.996Z,7.13
2022-10-22T18:46:25.045Z,9.05
2022-10-22T18:49:28.937Z,9.70
2022-10-22T18:52:32.377Z,10.07
2022-10-22T18:55:38.189Z,10.82
2022-10-22T18:58:44.747Z,10.75
2022-10-22T19:01:48.704Z,12.00
2022-10-22T19:04:51.883Z,11.48
2022-10-22T19:07:56.267Z,11.47
2022-10-22T19:10:59.803Z,10.40
2022-10-22T19:14:03.420Z,11.20
2022-10-22T19:17:06.646Z,11.27
2022-10-22T19:20:10.523Z,7.60
2022-10-22T19:23:18.486Z,11.00
2022-10-22T19:26:26.279Z,11.20
2022-10-22T19:29:30.125Z,10.98
2022-10-22T19:32:33.448Z,10.98
2022-10-22T19:35:37.460Z,10.63
2022-10-22T19:38:43.017Z,10.13
2022-10-22T19:41:46.610Z,10.35
2022-10-22T19:44:49.995Z,9.95
2022-10-22T19:47:53.211Z,9.80
2022-10-22T19:51:08.508Z,11.35
2022-10-22T19:54:18.470Z,9.57
2022-10-22T19:57:21.631Z,9.68
2022-10-22T20:00:24.896Z,9.65
2022-10-22T20:03:28.185Z,9.70
2022-10-22T20:06:31.854Z,9.73
2022-10-22T20:09:35.303Z,9.43
2022-10-22T20:12:38.457Z,9.20
2022-10-22T20:15:41.605Z,9.50
2022-10-22T20:18:45.345Z,8.98
2022-10-22T20:21:50.504Z,8.77
2022-10-22T20:24:54.341Z,8.60
2022-10-22T20:27:57.668Z,8.90
2022-10-22T20:31:00.803Z,8.82
2022-10-22T20:34:04.379Z,8.25
2022-10-22T20:37:07.908Z,8.27
2022-10-22T20:40:12.834Z,7.33
2022-10-22T20:43:16.121Z,8.50
2022-10-22T20:46:31.602Z,7.65
2022-10-22T20:49:35.245Z,7.70
2022-10-22T20:52:38.595Z,7.95
2022-10-22T20:55:41.797Z,8.07
2022-10-22T20:58:49.072Z,8.20
2022-10-22T21:01:53.959Z,7.82
2022-10-22T21:04:57.172Z,7.65
2022-10-22T21:08:00.338Z,7.72
2022-10-22T21:11:03.441Z,7.43
2022-10-22T21:14:09.196Z,6.97
2022-10-22T21:17:12.738Z,7.15
2022-10-22T21:20:17.121Z,6.50
2022-10-22T21:23:21.915Z,6.63
2022-10-22T21:26:25.190Z,6.07
2022-10-22T21:29:29.149Z,6.00
2022-10-22T21:32:32.276Z,5.78
2022-10-22T21:35:35.442Z,6.38
2022-10-22T21:38:38.866Z,6.03
2022-10-22T21:41:41.974Z,6.07
2022-10-22T21:44:45.135Z,5.85
2022-10-22T21:47:48.200Z,6.63
2022-10-22T21:50:51.324Z,6.45
2022-10-22T21:53:55.002Z,6.57
2022-10-22T21:56:58.459Z,6.17
2022-10-22T22:00:01.816Z,6.90
2022-10-22T22:03:07.915Z,6.95
2022-10-22T22:06:12.239Z,7.18
2022-10-22T22:09:15.497Z,6.93
2022-10-22T22:12:20.508Z,6.80
2022-10-22T22:15:23.702Z,7.47
2022-10-22T22:18:27.344Z,7.10
2022-10-22T22:21:31.453Z,7.18
2022-10-22T22:24:34.674Z,6.93
2022-10-22T22:27:37.884Z,7.13
2022-10-22T22:30:41.114Z,6.30
2022-10-22T22:33:45.220Z,6.85
2022-10-22T22:36:51.317Z,6.70
2022-10-22T22:39:54.696Z,6.65
2022-10-22T22:42:57.820Z,6.87
2022-10-22T22:46:10.599Z,6.40
2022-10-22T22:49:14.535Z,6.90
2022-10-22T22:52:17.748Z,7.30
2022-10-22T22:55:20.872Z,7.00
2022-10-22T22:58:24.016Z,6.97
2022-10-22T23:01:28.641Z,6.57
2022-10-22T23:04:32.019Z,6.38
2022-10-22T23:07:35.196Z,6.47
2022-10-22T23:10:38.324Z,7.05
2022-10-22T23:13:42.592Z,6.90
2022-10-22T23:16:49.120Z,5.88
2022-10-22T23:19:52.315Z,6.82
2022-10-22T23:22:55.423Z,6.47
2022-10-22T23:29:18.969Z,6.33
2022-10-22T23:32:22.084Z,5.88
2022-10-22T23:35:25.301Z,6.00
2022-10-22T23:38:28.915Z,6.38
2022-10-22T23:41:32.256Z,5.72
2022-10-22T23:44:35.331Z,5.63
2022-10-22T23:47:38.446Z,4.90
2022-10-22T23:50:41.604Z,5.75
2022-10-22T23:53:45.837Z,4.72
2022-10-22T23:56:49.125Z,5.22
2022-10-22T23:59:54.053Z,5.40
